Seattle, Washington
Current Conditions -  °F | °C
As of 12:53 PM on Monday 22 Dec 2014 (Local Time) from KBFI Reporting Station
Broken Clouds Broken Clouds  
Wind Chill: 53°   Ceiling: 15000
Heat Index: 53°   Visibility: 10mi
Dew Point: 39°   Wind: 0mph
Humidity: 59%   Direction: NA
Pressure: 30.37"   Gusts: NA
Location:  47.6°N, 122.32°W
Report Text: KBFI 222053Z 00000KT 10SM FEW030 BKN150 12/04 A3037 RMK AO2 SLP282 T01170039 55003
Loading
Personal Weather Stations






























Interactive Weather Map New forecast layout! Learn more

10-Day Weather Forecast

Advertisements
Track Severe Weather on mobile